Time;durP1;ratioP1;P1;durP2;ratioP2;P2;SDS_P1;SDS_P2;PMS_P1;PMS_P2;Temp;Humidity;BMP_temperature;BMP_pressure;BME280_temperature;BME280_humidity;BME280_pressure;Samples;Min_cycle;Max_cycle;Signal;HPM_P1;HPM_P2
2022/01/22 00:00:46;;;;;;;14.40;2.75;;;6.50;99.90;;;;;;5107047;27;20122;-83
2022/01/22 00:03:12;;;;;;;28.13;2.65;;;6.40;99.90;;;;;;5112632;27;20209;-83
2022/01/22 00:05:38;;;;;;;20.48;2.67;;;6.40;99.90;;;;;;5114114;27;20035;-83
2022/01/22 00:08:04;;;;;;;27.53;3.10;;;6.40;99.90;;;;;;5110556;27;20391;-83
2022/01/22 00:10:30;;;;;;;;;;;6.50;99.90;;;;;;5122496;27;20335;-83
2022/01/22 00:15:30;;;;;;;27.02;2.50;;;6.40;99.90;;;;;;5115932;27;20039;-83
2022/01/22 00:17:57;;;;;;;16.13;2.33;;;6.40;99.90;;;;;;5091392;28;20040;-83
2022/01/22 00:20:25;;;;;;;22.83;3.33;;;7.50;99.90;;;;;;5120364;27;20035;-83
2022/01/22 00:22:52;;;;;;;19.80;2.50;;;6.40;99.90;;;;;;5096404;27;20087;-83
2022/01/22 00:25:20;;;;;;;20.85;2.83;;;6.40;99.90;;;;;;5096270;27;20062;-83
2022/01/22 00:28:05;;;;;;;25.95;2.88;;;6.40;99.90;;;;;;5126507;27;20041;-83
2022/01/22 00:30:30;;;;;;;20.77;2.67;;;6.60;99.90;;;;;;5099541;27;20121;-83
2022/01/22 00:32:57;;;;;;;17.33;2.67;;;6.40;99.90;;;;;;5116412;27;20134;-82
2022/01/22 00:35:23;;;;;;;22.02;2.80;;;6.40;99.90;;;;;;5122042;27;20328;-83
2022/01/22 00:37:51;;;;;;;20.23;2.30;;;7.00;99.90;;;;;;5103102;27;20042;-83
2022/01/22 00:40:18;;;;;;;23.35;3.30;;;6.80;99.90;;;;;;5116547;27;20383;-83
2022/01/22 00:42:46;;;;;;;16.60;2.42;;;6.40;99.90;;;;;;5097683;27;20503;-83
2022/01/22 00:45:13;;;;;;;21.15;2.97;;;6.70;99.90;;;;;;5117056;27;20046;-83
2022/01/22 00:47:39;;;;;;;16.75;2.70;;;6.50;99.90;;;;;;5118472;27;20521;-83
2022/01/22 00:50:07;;;;;;;16.33;2.40;;;6.50;99.90;;;;;;5115280;27;20440;-83
2022/01/22 00:52:33;;;;;;;15.75;2.00;;;6.50;99.90;;;;;;5110973;27;20520;-83
2022/01/22 00:54:58;;;;;;;12.20;1.90;;;6.90;99.90;;;;;;5115901;27;20039;-83
2022/01/22 00:57:24;;;;;;;13.63;2.15;;;6.50;99.90;;;;;;5125666;27;21186;-83
2022/01/22 00:59:50;;;;;;;17.83;2.63;;;6.30;99.90;;;;;;5115535;27;20080;-83
2022/01/22 01:02:16;;;;;;;12.05;1.60;;;6.50;99.90;;;;;;5121527;27;20157;-83
2022/01/22 01:04:42;;;;;;;16.52;2.47;;;6.50;99.90;;;;;;5109401;27;20043;-83
2022/01/22 01:07:07;;;;;;;19.75;2.55;;;6.50;99.90;;;;;;5118560;27;20100;-83
2022/01/22 01:10:13;;;;;;;15.98;2.13;;;6.50;99.90;;;;;;5114596;27;20042;-83
2022/01/22 01:12:40;;;;;;;21.13;3.03;;;6.50;99.90;;;;;;5114223;27;20043;-83
2022/01/22 01:32:07;;;;;;;18.50;2.40;;;6.50;99.90;;;;;;5118025;27;20075;-83
2022/01/22 01:35:06;;;;;;;8.00;1.65;;;6.60;99.90;;;;;;5115490;27;20043;-83
2022/01/22 01:37:32;;;;;;;12.48;1.90;;;6.50;99.90;;;;;;5120430;27;20043;-83
2022/01/22 01:40:04;;;;;;;9.27;1.73;;;6.50;99.90;;;;;;5104399;28;20050;-82
2022/01/22 01:45:08;;;;;;;11.40;1.70;;;6.50;99.90;;;;;;5126950;27;20042;-82
2022/01/22 01:47:35;;;;;;;12.25;2.20;;;6.50;99.90;;;;;;5122213;27;20125;-83
2022/01/22 01:50:02;;;;;;;8.88;1.83;;;6.50;99.90;;;;;;5124211;27;20060;-82
2022/01/22 01:52:42;;;;;;;7.80;2.05;;;6.50;99.90;;;;;;5120879;27;20043;-83
2022/01/22 01:55:16;;;;;;;17.42;2.13;;;6.70;99.90;;;;;;5109535;27;20052;-82
2022/01/22 01:57:43;;;;;;;6.05;1.48;;;6.50;99.90;;;;;;5091980;27;20110;-83
2022/01/22 02:00:14;;;;;;;11.70;1.80;;;6.50;99.90;;;;;;5108707;27;20114;-82
2022/01/22 02:02:41;;;;;;;8.20;1.65;;;6.50;99.90;;;;;;5121069;28;20039;-82
2022/01/22 02:05:09;;;;;;;13.80;1.98;;;7.00;99.90;;;;;;5108356;27;20497;-83
2022/01/22 02:07:38;;;;;;;11.98;2.00;;;6.50;99.90;;;;;;5123556;27;20047;-83
2022/01/22 02:10:09;;;;;;;15.27;2.03;;;6.50;99.90;;;;;;5125963;27;20047;-83
2022/01/22 02:23:43;;;;;;;9.30;1.60;;;6.40;99.90;;;;;;5125395;27;20058;-83
2022/01/22 02:26:11;;;;;;;11.57;1.92;;;6.40;99.90;;;;;;5125517;27;20046;-83
2022/01/22 02:28:42;;;;;;;9.38;2.22;;;7.30;99.90;;;;;;5105476;27;20424;-82
2022/01/22 02:31:18;;;;;;;15.90;1.70;;;6.40;99.90;;;;;;5112587;27;20043;-82
2022/01/22 02:33:55;;;;;;;7.07;1.55;;;6.40;99.90;;;;;;5109751;27;20035;-83
2022/01/22 02:36:29;;;;;;;17.00;1.75;;;6.40;99.90;;;;;;5111612;27;20556;-83
2022/01/22 02:41:24;;;;;;;10.68;1.25;;;6.30;99.90;;;;;;5129508;27;20046;-83
2022/01/22 02:43:50;;;;;;;14.38;1.80;;;6.40;99.90;;;;;;5121257;27;20089;-83
2022/01/22 02:46:19;;;;;;;10.75;1.50;;;6.40;99.90;;;;;;5126490;27;20087;-83
2022/01/22 02:48:44;;;;;;;9.23;1.50;;;6.40;99.90;;;;;;5122194;27;20035;-83
2022/01/22 02:51:10;;;;;;;13.30;1.90;;;6.40;99.90;;;;;;5126801;27;20477;-83
2022/01/22 02:53:36;;;;;;;9.60;1.60;;;6.40;99.90;;;;;;5124758;27;20031;-83
2022/01/22 02:56:02;;;;;;;9.50;1.55;;;6.40;99.90;;;;;;5112004;27;20092;-83
2022/01/22 02:58:28;;;;;;;6.65;1.75;;;6.40;99.90;;;;;;5118993;27;20110;-83
2022/01/22 03:00:54;;;;;;;6.40;1.83;;;6.40;99.90;;;;;;5124393;27;20482;-83
2022/01/22 03:03:20;;;;;;;12.68;1.88;;;6.40;99.90;;;;;;5126739;27;20039;-83
2022/01/22 03:05:45;;;;;;;9.18;1.80;;;6.40;99.90;;;;;;5131600;27;20046;-83
2022/01/22 03:08:13;;;;;;;11.40;1.50;;;6.40;99.90;;;;;;5110247;27;20140;-82
2022/01/22 03:10:40;;;;;;;5.25;1.02;;;6.40;99.90;;;;;;5125971;27;20030;-83
2022/01/22 03:13:18;;;;;;;6.82;1.40;;;6.40;99.90;;;;;;5128603;27;20043;-83
2022/01/22 03:16:01;;;;;;;10.02;1.70;;;6.40;99.90;;;;;;5120873;27;20041;-83
2022/01/22 03:21:10;;;;;;;7.68;1.50;;;7.20;99.90;;;;;;5102376;27;20185;-83
2022/01/22 03:29:12;;;;;;;6.25;1.23;;;6.40;99.90;;;;;;5124344;27;20047;-83
2022/01/22 03:31:42;;;;;;;11.35;1.50;;;6.40;99.90;;;;;;5129140;27;20047;-83
2022/01/22 03:34:08;;;;;;;10.07;1.50;;;6.40;99.90;;;;;;5120733;27;20479;-83
2022/01/22 03:36:34;;;;;;;9.63;1.95;;;6.30;99.90;;;;;;5134887;27;20122;-83
2022/01/22 03:39:03;;;;;;;11.25;1.58;;;6.60;99.90;;;;;;5132770;27;20064;-82
2022/01/22 03:41:29;;;;;;;8.98;1.60;;;6.40;99.90;;;;;;5124404;27;20057;-83
2022/01/22 03:43:56;;;;;;;6.90;1.40;;;6.40;99.90;;;;;;5128434;27;20130;-83
2022/01/22 03:46:22;;;;;;;8.73;1.63;;;6.40;99.90;;;;;;5125194;27;20280;-83
2022/01/22 03:48:48;;;;;;;8.00;1.73;;;6.30;99.90;;;;;;5127990;27;20490;-82
2022/01/22 03:51:14;;;;;;;9.95;1.48;;;6.30;99.90;;;;;;5126849;27;20527;-83
2022/01/22 03:53:40;;;;;;;10.73;1.60;;;6.30;99.90;;;;;;5122967;27;20043;-83
2022/01/22 03:56:07;;;;;;;8.07;1.45;;;7.00;99.90;;;;;;5120107;27;20031;-83
2022/01/22 03:58:41;;;;;;;7.60;1.42;;;6.40;99.90;;;;;;5120307;27;20050;-83
2022/01/22 04:04:06;;;;;;;13.88;1.90;;;6.30;99.90;;;;;;5127226;27;20035;-83
2022/01/22 04:09:09;;;;;;;6.05;1.52;;;6.30;99.90;;;;;;5101991;27;20505;-83
2022/01/22 04:11:40;;;;;;;12.52;1.70;;;6.30;99.90;;;;;;5094712;27;20035;-82
2022/01/22 04:14:13;;;;;;;12.02;1.33;;;6.40;99.90;;;;;;5124031;27;20039;-83
2022/01/22 04:16:45;;;;;;;9.38;1.80;;;6.40;99.90;;;;;;5129617;27;20070;-83
2022/01/22 04:24:54;;;;;;;12.40;1.50;;;6.30;99.90;;;;;;5086537;27;1124314;-83
2022/01/22 04:27:24;;;;;;;11.85;1.40;;;6.40;99.90;;;;;;5127791;27;20635;-83
2022/01/22 04:29:58;;;;;;;5.00;1.00;;;6.30;99.90;;;;;;5124990;27;20074;-83
2022/01/22 04:32:29;;;;;;;9.27;1.30;;;6.30;99.90;;;;;;5123124;27;20046;-83
2022/01/22 04:34:55;;;;;;;6.57;1.10;;;6.40;99.90;;;;;;5122563;27;20035;-83
2022/01/22 04:37:24;;;;;;;9.65;1.67;;;6.30;99.90;;;;;;5132411;27;20032;-83
2022/01/22 04:39:50;;;;;;;5.95;1.10;;;6.30;99.90;;;;;;5124970;27;20046;-83
2022/01/22 04:42:16;;;;;;;;;;;6.30;99.90;;;;;;5127997;27;20565;-83
2022/01/22 04:44:59;;;;;;;9.00;1.10;;;6.30;99.90;;;;;;5107606;27;19925;-83
2022/01/22 04:54:57;;;;;;;6.47;1.15;;;6.40;99.90;;;;;;5119705;27;20053;-83
2022/01/22 04:55:29;;;;;;;7.57;1.40;;;6.30;99.90;;;;;;5122210;27;20067;-82
2022/01/22 04:57:55;;;;;;;7.65;1.27;;;6.30;99.90;;;;;;5124841;27;20041;-83
2022/01/22 05:00:21;;;;;;;4.68;0.90;;;6.60;99.90;;;;;;5121625;27;20117;-81
2022/01/22 05:02:47;;;;;;;8.63;1.00;;;6.30;99.90;;;;;;5110055;27;20091;-81
2022/01/22 05:05:12;;;;;;;7.63;1.02;;;6.30;99.90;;;;;;5107100;27;20039;-81
2022/01/22 05:07:38;;;;;;;7.70;1.00;;;6.30;99.90;;;;;;5121921;27;20080;-81
2022/01/22 05:10:05;;;;;;;8.93;1.10;;;6.60;99.90;;;;;;5126172;27;20039;-82
2022/01/22 05:12:31;;;;;;;9.45;1.30;;;6.30;99.90;;;;;;5123691;27;20043;-82
2022/01/22 05:14:57;;;;;;;9.05;1.30;;;6.30;99.90;;;;;;5119832;27;20602;-81
2022/01/22 05:17:23;;;;;;;9.90;1.40;;;6.30;99.90;;;;;;5124169;27;20391;-81
2022/01/22 05:19:59;;;;;;;9.70;1.53;;;6.30;99.90;;;;;;5121451;27;20039;-81
2022/01/22 05:24:58;;;;;;;11.80;1.40;;;6.30;99.90;;;;;;5126322;27;20054;-82
2022/01/22 05:37:43;;;;;;;10.75;1.30;;;6.60;99.90;;;;;;5119343;27;20084;-81
2022/01/22 05:40:09;;;;;;;6.53;1.08;;;6.20;99.90;;;;;;5121134;27;20494;-81
2022/01/22 05:42:36;;;;;;;7.63;1.10;;;6.20;99.90;;;;;;5122341;27;20038;-81
2022/01/22 05:45:04;;;;;;;10.65;1.05;;;6.20;99.90;;;;;;5085572;27;20042;-82
2022/01/22 05:47:30;;;;;;;9.15;1.45;;;6.20;99.90;;;;;;5126104;27;20047;-82
2022/01/22 05:49:56;;;;;;;9.43;1.20;;;6.20;99.90;;;;;;5121997;27;20123;-82
2022/01/22 05:52:41;;;;;;;10.98;1.20;;;6.20;99.90;;;;;;5114662;27;20050;-83
2022/01/22 06:00:18;;;;;;;10.82;1.05;;;6.10;99.90;;;;;;5113023;27;20035;-85
2022/01/22 06:02:43;;;;;;;13.07;1.40;;;6.20;99.90;;;;;;5113188;27;20051;-85
2022/01/22 06:05:09;;;;;;;10.13;1.10;;;6.60;99.90;;;;;;5095857;27;20060;-87
2022/01/22 06:07:35;;;;;;;9.40;1.33;;;6.20;99.90;;;;;;5075929;27;20564;-87
2022/01/22 06:12:43;;;;;;;9.13;1.50;;;6.20;99.90;;;;;;5118503;27;20325;-86
2022/01/22 06:15:10;;;;;;;9.95;1.85;;;6.20;99.90;;;;;;5123134;27;20299;-83
2022/01/22 06:17:36;;;;;;;13.23;1.85;;;6.30;99.90;;;;;;5107307;27;20085;-87
2022/01/22 06:20:02;;;;;;;14.27;1.73;;;6.20;99.90;;;;;;5115166;27;20078;-87
2022/01/22 06:22:27;;;;;;;14.48;2.47;;;6.30;99.90;;;;;;5100633;27;20357;-83
2022/01/22 06:24:53;;;;;;;10.45;1.67;;;6.30;99.90;;;;;;5109212;28;20059;-85
2022/01/22 06:27:19;;;;;;;17.10;1.77;;;6.80;99.90;;;;;;5115474;28;20096;-86
2022/01/22 06:29:45;;;;;;;9.47;1.53;;;6.30;99.90;;;;;;5122728;28;20047;-84
2022/01/22 06:32:10;;;;;;;7.23;1.27;;;6.20;99.90;;;;;;5106670;28;20725;-86
2022/01/22 06:34:36;;;;;;;7.27;1.10;;;6.20;99.90;;;;;;5094775;28;20028;-83
2022/01/22 06:37:02;;;;;;;8.15;1.40;;;7.00;99.90;;;;;;5100959;28;20273;-88
2022/01/22 06:39:28;;;;;;;9.50;2.10;;;6.20;99.90;;;;;;5118101;28;20039;-87
2022/01/22 06:42:31;;;;;;;6.13;1.42;;;6.20;99.90;;;;;;5097032;28;20043;-88
2022/01/22 06:44:58;;;;;;;7.82;1.40;;;6.20;99.90;;;;;;5101713;28;20051;-85
2022/01/22 06:47:25;;;;;;;8.82;1.60;;;6.30;99.90;;;;;;5115920;28;20533;-87
2022/01/22 06:49:51;;;;;;;6.68;1.50;;;6.20;99.90;;;;;;5130692;28;20050;-87
2022/01/22 06:52:17;;;;;;;7.35;1.40;;;6.20;99.90;;;;;;5128911;28;20114;-86
2022/01/22 06:54:44;;;;;;;7.43;1.77;;;6.10;99.90;;;;;;5103113;28;20059;-86
2022/01/22 06:57:10;;;;;;;6.78;1.13;;;6.20;99.90;;;;;;5130194;27;20541;-85
2022/01/22 06:59:36;;;;;;;6.57;1.33;;;6.50;99.90;;;;;;5125105;27;20035;-87
2022/01/22 07:02:03;;;;;;;9.13;1.33;;;6.20;99.90;;;;;;5120649;27;20071;-88
2022/01/22 07:04:31;;;;;;;;;;;6.20;99.90;;;;;;5124362;27;20123;-85
2022/01/22 07:06:57;;;;;;;8.77;1.75;;;6.20;99.90;;;;;;5086555;28;19923;-85
2022/01/22 07:09:23;;;;;;;7.95;1.60;;;6.20;99.90;;;;;;5125022;27;20157;-73
2022/01/22 07:11:49;;;;;;;10.32;1.50;;;6.20;99.90;;;;;;5123205;27;20031;-73
2022/01/22 07:14:16;;;;;;;13.63;1.83;;;6.10;99.90;;;;;;5100836;28;20471;-73
2022/01/22 07:16:41;;;;;;;;;;;6.20;99.90;;;;;;5123210;27;20477;-73
2022/01/22 07:19:07;;;;;;;16.67;1.80;;;6.20;99.90;;;;;;5092010;27;20002;-73
2022/01/22 07:21:33;;;;;;;9.05;1.70;;;6.10;99.90;;;;;;5124043;27;20027;-73
2022/01/22 07:26:27;;;;;;;11.70;2.03;;;6.10;99.90;;;;;;5123028;27;20126;-73
2022/01/22 07:28:53;;;;;;;6.60;2.20;;;6.10;99.90;;;;;;5121662;27;20047;-73
2022/01/22 07:31:25;;;;;;;12.82;2.05;;;6.20;99.90;;;;;;5102707;27;20043;-73
2022/01/22 07:33:50;;;;;;;10.77;1.55;;;6.10;99.90;;;;;;5111882;27;20122;-73
2022/01/22 07:36:16;;;;;;;5.53;1.30;;;6.10;99.90;;;;;;5101892;28;20126;-72
2022/01/22 07:38:42;;;;;;;2.15;0.80;;;6.10;99.90;;;;;;5121209;27;20468;-74
2022/01/22 07:41:09;;;;;;;6.55;1.25;;;6.10;99.90;;;;;;5098637;27;20068;-74
2022/01/22 07:43:36;;;;;;;3.55;0.90;;;6.00;99.90;;;;;;5121166;27;20463;-75
2022/01/22 07:46:01;;;;;;;4.82;1.20;;;6.10;99.90;;;;;;5121267;27;20080;-74
2022/01/22 07:48:27;;;;;;;4.38;1.00;;;6.30;99.90;;;;;;5123050;27;20031;-73
2022/01/22 07:50:53;;;;;;;2.95;0.90;;;6.00;99.90;;;;;;5126624;27;20042;-74
2022/01/22 07:53:18;;;;;;;3.90;1.10;;;6.00;99.90;;;;;;5129742;27;20047;-75
2022/01/22 07:55:44;;;;;;;8.00;1.00;;;6.00;99.90;;;;;;5119872;27;20041;-75
2022/01/22 07:58:11;;;;;;;4.80;1.13;;;6.10;99.90;;;;;;5106319;27;20039;-75
2022/01/22 08:00:38;;;;;;;6.07;1.00;;;6.00;99.90;;;;;;5126866;27;20280;-76
2022/01/22 08:03:03;;;;;;;;;;;6.00;99.90;;;;;;5084182;27;20047;-76
2022/01/22 08:05:29;;;;;;;7.38;1.40;;;6.00;99.90;;;;;;5118403;27;19967;-76
2022/01/22 08:07:55;;;;;;;11.40;1.27;;;6.00;99.90;;;;;;5106543;27;20582;-75
2022/01/22 08:10:21;;;;;;;5.83;1.43;;;6.10;99.90;;;;;;5077555;28;20487;-75
2022/01/22 08:12:49;;;;;;;5.50;1.95;;;6.00;99.90;;;;;;5112692;27;20124;-75
2022/01/22 08:15:16;;;;;;;10.13;1.23;;;6.00;99.90;;;;;;5120500;27;20584;-78
2022/01/22 08:17:42;;;;;;;4.53;1.00;;;6.20;99.90;;;;;;5115879;27;20042;-77
2022/01/22 08:20:11;;;;;;;8.00;1.20;;;7.20;99.90;;;;;;5121074;27;20023;-76
2022/01/22 08:22:44;;;;;;;3.15;0.90;;;6.00;99.90;;;;;;5103087;27;20126;-76
2022/01/22 08:25:11;;;;;;;5.63;1.10;;;6.00;99.90;;;;;;5111115;27;20197;-75
2022/01/22 08:28:52;;;;;;;5.35;0.82;;;6.00;99.90;;;;;;5118262;27;20371;-76
2022/01/22 08:30:36;;;;;;;4.40;0.75;;;6.00;99.90;;;;;;5118580;27;20488;-76
2022/01/22 08:35:53;;;;;;;6.95;1.15;;;6.00;99.90;;;;;;5116820;27;20031;-76
2022/01/22 08:38:21;;;;;;;9.52;1.00;;;6.10;99.90;;;;;;5120023;27;20576;-73
2022/01/22 08:40:46;;;;;;;8.45;1.10;;;6.00;99.90;;;;;;5117462;27;20087;-73
2022/01/22 08:43:12;;;;;;;11.48;1.15;;;6.00;99.90;;;;;;5099498;27;20498;-73
2022/01/22 08:45:39;;;;;;;4.80;1.03;;;6.00;99.90;;;;;;5124961;27;20053;-73
2022/01/22 08:48:05;;;;;;;10.02;1.25;;;6.40;99.90;;;;;;5095486;27;20295;-73
2022/01/22 08:50:32;;;;;;;5.32;1.20;;;6.10;99.90;;;;;;5116394;27;20039;-73
2022/01/22 08:52:57;;;;;;;8.20;1.27;;;6.10;99.90;;;;;;5121352;27;20073;-74
2022/01/22 08:55:24;;;;;;;8.68;1.08;;;6.10;99.90;;;;;;5126409;27;20446;-73
2022/01/22 08:57:51;;;;;;;6.75;1.45;;;6.10;99.90;;;;;;5127507;27;20043;-74
2022/01/22 09:00:19;;;;;;;4.38;1.13;;;6.10;99.90;;;;;;5113363;27;20042;-73
2022/01/22 09:02:46;;;;;;;4.72;1.02;;;6.10;99.90;;;;;;5097170;28;20040;-73
2022/01/22 09:05:16;;;;;;;9.52;1.70;;;5.00;99.90;;;;;;5113598;27;20035;-74
2022/01/22 09:07:41;;;;;;;8.32;1.33;;;6.20;99.90;;;;;;5121967;27;20119;-73
2022/01/22 09:10:07;;;;;;;6.95;1.65;;;6.60;99.90;;;;;;5107789;27;20207;-74
2022/01/22 09:12:33;;;;;;;5.72;1.30;;;6.20;99.90;;;;;;5117361;27;20035;-73
2022/01/22 09:14:59;;;;;;;10.68;1.40;;;6.20;99.90;;;;;;5096092;28;20062;-74
2022/01/22 09:17:24;;;;;;;11.23;1.50;;;6.20;99.90;;;;;;5115493;27;20046;-73
2022/01/22 09:19:56;;;;;;;5.00;1.15;;;6.20;99.90;;;;;;5107858;28;20038;-74
2022/01/22 09:22:22;;;;;;;6.43;1.20;;;6.20;99.90;;;;;;5089021;27;20053;-75
2022/01/22 09:24:49;;;;;;;5.90;1.25;;;6.30;99.90;;;;;;5101959;28;20500;-75
2022/01/22 09:27:16;;;;;;;6.53;1.33;;;6.30;99.90;;;;;;5113104;27;20046;-74
2022/01/22 09:29:42;;;;;;;15.25;1.42;;;6.30;99.90;;;;;;5097045;27;20577;-75
2022/01/22 09:32:08;;;;;;;9.15;1.52;;;7.30;99.90;;;;;;5110202;28;20528;-75
2022/01/22 09:34:34;;;;;;;14.27;1.80;;;6.80;99.90;;;;;;5085004;27;20039;-75
2022/01/22 09:36:59;;;;;;;8.68;1.60;;;6.70;99.90;;;;;;5095863;28;20281;-75
2022/01/22 09:39:25;;;;;;;9.00;1.67;;;7.40;99.90;;;;;;5114282;27;20050;-73
2022/01/22 09:41:51;;;;;;;8.90;1.90;;;6.40;99.90;;;;;;5127845;27;20312;-73
2022/01/22 09:44:17;;;;;;;11.40;1.57;;;6.30;99.90;;;;;;5075682;28;20036;-72
2022/01/22 09:46:46;;;;;;;8.13;1.50;;;6.40;99.90;;;;;;5107028;28;20360;-73
2022/01/22 09:49:12;;;;;;;12.73;1.60;;;7.50;99.90;;;;;;5116449;27;20092;-73
2022/01/22 09:51:39;;;;;;;14.43;1.85;;;6.40;99.90;;;;;;5125597;27;20375;-73
2022/01/22 09:54:10;;;;;;;14.40;2.53;;;6.50;99.90;;;;;;5093903;28;20092;-73
2022/01/22 09:56:36;;;;;;;9.05;2.00;;;6.40;99.90;;;;;;5102194;28;20039;-73
2022/01/22 09:59:03;;;;;;;13.63;2.00;;;6.50;99.90;;;;;;5092676;28;20039;-73
2022/01/22 10:01:34;;;;;;;11.85;2.10;;;7.40;99.90;;;;;;5109477;28;20526;-73
2022/01/22 10:04:05;;;;;;;12.20;1.95;;;6.50;99.90;;;;;;5114597;28;20081;-73
2022/01/22 10:06:33;;;;;;;12.60;2.33;;;6.50;99.90;;;;;;5111774;28;20486;-73
2022/01/22 10:09:12;;;;;;;14.05;2.10;;;6.50;99.90;;;;;;5121670;28;20043;-73
2022/01/22 10:11:38;;;;;;;12.43;2.10;;;6.60;99.90;;;;;;5125434;28;20039;-73
2022/01/22 10:14:04;;;;;;;15.18;2.50;;;6.60;99.90;;;;;;5108151;28;20050;-73
2022/01/22 10:16:33;;;;;;;8.93;1.95;;;6.60;99.90;;;;;;5089442;28;20040;-73
2022/01/22 10:19:18;;;;;;;8.68;2.13;;;7.20;99.90;;;;;;5122338;28;20746;-73
2022/01/22 10:21:49;;;;;;;10.77;2.03;;;6.60;99.90;;;;;;5089817;28;20031;-73
2022/01/22 10:24:48;;;;;;;13.18;2.38;;;6.60;99.90;;;;;;5109869;28;20431;-73
2022/01/22 10:27:36;;;;;;;13.73;2.58;;;6.70;99.90;;;;;;5102701;28;20488;-73
2022/01/22 10:30:07;;;;;;;11.13;2.00;;;6.60;99.90;;;;;;5122005;27;20050;-73
2022/01/22 10:35:23;;;;;;;9.93;1.90;;;6.80;99.90;;;;;;5123424;27;20499;-73
2022/01/22 10:37:57;;;;;;;9.15;2.10;;;6.70;99.90;;;;;;5102339;27;20032;-73
2022/01/22 10:40:37;;;;;;;13.82;2.50;;;6.70;99.90;;;;;;5122648;27;20067;-73
2022/01/22 10:43:27;;;;;;;6.40;1.80;;;6.70;99.90;;;;;;5081173;28;20112;-73
2022/01/22 10:45:59;;;;;;;9.65;1.80;;;6.70;99.90;;;;;;5106862;27;20035;-73
2022/01/22 10:48:25;;;;;;;12.15;2.20;;;6.70;99.90;;;;;;5106266;27;20362;-73
2022/01/22 10:51:07;;;;;;;12.82;2.13;;;6.70;99.90;;;;;;5088192;28;20036;-73
2022/01/22 10:54:00;;;;;;;7.05;1.52;;;6.70;99.90;;;;;;5124822;27;20111;-73
2022/01/22 10:56:32;;;;;;;20.83;2.22;;;6.70;99.90;;;;;;5105328;28;20085;-73
2022/01/22 10:59:05;;;;;;;11.07;1.85;;;6.70;99.90;;;;;;5104747;27;20028;-74
2022/01/22 11:01:48;;;;;;;11.88;2.40;;;6.70;99.90;;;;;;5130377;27;20517;-74
2022/01/22 11:04:26;;;;;;;14.63;2.15;;;6.70;99.90;;;;;;5123330;27;20046;-74
2022/01/22 11:07:01;;;;;;;17.05;2.50;;;6.80;99.90;;;;;;5132514;27;20045;-75
2022/01/22 11:09:31;;;;;;;12.63;2.28;;;7.30;99.90;;;;;;5133105;27;20043;-74
2022/01/22 11:11:58;;;;;;;13.35;1.83;;;7.50;99.90;;;;;;5132435;27;20051;-74
2022/01/22 11:14:29;;;;;;;13.18;2.22;;;6.80;99.90;;;;;;5103380;27;20118;-74
2022/01/22 11:16:56;;;;;;;13.80;3.00;;;6.80;99.90;;;;;;5121922;27;20086;-74
2022/01/22 11:19:30;;;;;;;16.33;2.85;;;6.80;99.90;;;;;;5114366;27;20302;-75
2022/01/22 11:21:56;;;;;;;12.35;2.53;;;7.40;99.90;;;;;;5127239;27;20494;-74
2022/01/22 11:24:24;;;;;;;9.23;2.78;;;6.80;99.90;;;;;;5107654;28;20480;-74
2022/01/22 11:27:00;;;;;;;13.45;2.50;;;6.80;99.90;;;;;;5121714;27;21136;-74
2022/01/22 11:29:29;;;;;;;14.95;2.65;;;6.80;99.90;;;;;;5123622;27;20575;-76
2022/01/22 11:31:58;;;;;;;8.90;2.47;;;6.80;99.90;;;;;;5126654;27;20057;-77
2022/01/22 11:34:27;;;;;;;11.70;2.33;;;6.80;99.90;;;;;;5129859;27;20478;-75
2022/01/22 11:36:56;;;;;;;12.80;2.40;;;6.80;99.90;;;;;;5115643;27;20031;-75
2022/01/22 11:39:25;;;;;;;13.32;3.28;;;7.80;99.90;;;;;;5093834;28;20466;-76
2022/01/22 11:41:58;;;;;;;12.05;3.75;;;6.80;99.90;;;;;;5113686;27;20114;-76
2022/01/22 11:44:50;;;;;;;19.42;4.35;;;6.90;99.90;;;;;;5115992;27;20048;-76
2022/01/22 11:47:20;;;;;;;21.75;5.00;;;6.90;99.90;;;;;;5096120;28;20035;-76
2022/01/22 11:50:09;;;;;;;12.98;4.47;;;6.90;99.90;;;;;;5110263;27;20127;-76
2022/01/22 11:52:38;;;;;;;16.70;4.57;;;6.90;99.90;;;;;;5109364;27;20051;-76
2022/01/22 11:55:13;;;;;;;13.93;4.00;;;6.80;99.90;;;;;;5109333;27;20040;-75
2022/01/22 11:57:40;;;;;;;19.58;4.32;;;6.80;99.90;;;;;;5109354;28;20040;-76
2022/01/22 12:00:27;;;;;;;14.93;3.85;;;6.90;99.90;;;;;;5095882;27;20503;-76
2022/01/22 12:03:08;;;;;;;13.77;3.60;;;6.80;99.90;;;;;;5098469;27;20038;-75
2022/01/22 12:05:54;;;;;;;18.83;4.28;;;6.90;99.90;;;;;;5103096;28;20278;-75
2022/01/22 12:08:22;;;;;;;14.27;3.70;;;6.90;99.90;;;;;;5110524;27;20039;-75
2022/01/22 12:16:16;;;;;;;13.52;3.03;;;7.60;99.90;;;;;;5121498;27;20043;-75
2022/01/22 12:18:51;;;;;;;12.90;3.30;;;6.90;99.90;;;;;;5113671;27;20047;-75
2022/01/22 12:21:52;;;;;;;13.68;3.72;;;6.90;99.90;;;;;;5111628;27;20035;-75
2022/01/22 12:24:30;;;;;;;11.32;3.35;;;6.90;99.90;;;;;;5049311;28;20044;-75
2022/01/22 12:27:01;;;;;;;14.10;3.67;;;7.00;99.90;;;;;;5108122;27;20053;-75
2022/01/22 12:29:35;;;;;;;11.25;3.97;;;6.90;99.90;;;;;;5104907;28;20043;-75
2022/01/22 12:32:17;;;;;;;16.40;4.25;;;6.90;99.90;;;;;;5117709;27;20051;-75
2022/01/22 12:35:07;;;;;;;18.70;3.97;;;6.80;99.90;;;;;;5118220;27;20043;-75
2022/01/22 12:37:37;;;;;;;16.30;3.88;;;6.90;99.90;;;;;;5113230;27;20160;-75
2022/01/22 12:40:06;;;;;;;14.10;4.30;;;6.90;99.90;;;;;;5116769;27;20370;-76
2022/01/22 12:43:11;;;;;;;12.93;4.00;;;6.90;99.90;;;;;;5121295;27;20118;-74
2022/01/22 12:45:39;;;;;;;14.88;4.13;;;6.90;99.90;;;;;;5052656;28;20044;-74
2022/01/22 12:48:05;;;;;;;13.95;3.90;;;6.90;99.90;;;;;;5105668;27;20063;-74
2022/01/22 12:50:33;;;;;;;11.25;3.55;;;7.00;99.90;;;;;;5113151;27;20039;-74
2022/01/22 12:53:04;;;;;;;12.35;3.72;;;7.10;99.90;;;;;;5111809;27;20098;-75
2022/01/22 12:56:12;;;;;;;14.57;3.90;;;7.00;99.90;;;;;;5115178;27;20383;-75
2022/01/22 12:58:40;;;;;;;14.02;3.58;;;7.00;99.90;;;;;;5108239;28;20134;-75
2022/01/22 13:01:34;;;;;;;9.90;2.90;;;7.10;99.90;;;;;;5115087;27;20067;-74
2022/01/22 13:04:04;;;;;;;11.02;2.85;;;7.10;99.90;;;;;;5113894;27;20122;-74
2022/01/22 13:06:40;;;;;;;12.50;3.10;;;7.00;99.90;;;;;;5080579;28;20035;-74
2022/01/22 13:09:08;;;;;;;8.70;2.80;;;7.00;99.90;;;;;;5098021;28;20044;-75
2022/01/22 13:11:43;;;;;;;8.05;3.15;;;7.60;99.90;;;;;;5086901;28;20105;-75
2022/01/22 13:14:09;;;;;;;8.52;2.30;;;6.90;99.90;;;;;;5086636;27;20593;-75
2022/01/22 13:16:35;;;;;;;7.15;2.10;;;7.00;99.90;;;;;;5104238;27;20032;-75
2022/01/22 13:19:00;;;;;;;7.70;2.10;;;6.90;99.90;;;;;;5073000;27;20028;-75
2022/01/22 13:21:28;;;;;;;8.63;2.10;;;6.90;99.90;;;;;;5102242;27;20088;-75
2022/01/22 13:24:11;;;;;;;8.65;1.83;;;6.90;99.90;;;;;;5096036;28;20129;-74
2022/01/22 13:27:11;;;;;;;10.23;2.30;;;6.90;99.90;;;;;;5100586;28;20465;-74
2022/01/22 13:29:52;;;;;;;5.68;1.60;;;6.90;99.90;;;;;;5104141;28;20457;-74
2022/01/22 13:34:59;;;;;;;9.18;1.50;;;6.80;99.90;;;;;;5112305;27;20511;-74
2022/01/22 13:37:58;;;;;;;9.00;1.85;;;6.70;99.90;;;;;;5117965;27;20043;-73
2022/01/22 13:40:32;;;;;;;10.80;1.65;;;6.80;99.90;;;;;;5104423;28;20058;-74
2022/01/22 13:48:25;;;;;;;4.95;1.40;;;7.20;99.90;;;;;;5112086;27;20058;-74
2022/01/22 13:50:52;;;;;;;9.23;1.95;;;6.70;99.90;;;;;;5119960;27;20035;-74
2022/01/22 13:53:17;;;;;;;;;;;6.70;99.90;;;;;;5097633;28;20050;-74
2022/01/22 13:55:59;;;;;;;15.68;1.95;;;7.30;99.90;;;;;;5101469;27;19923;-75
2022/01/22 13:58:25;;;;;;;7.85;1.67;;;6.70;99.90;;;;;;5125306;28;20415;-75
2022/01/22 14:00:51;;;;;;;12.35;1.95;;;6.70;99.90;;;;;;5118832;28;20126;-74
2022/01/22 14:05:52;;;;;;;4.80;1.58;;;6.70;99.90;;;;;;5130112;27;20046;-74
2022/01/22 14:08:30;;;;;;;8.32;1.80;;;6.70;99.90;;;;;;5114091;27;20130;-74
2022/01/22 14:11:13;;;;;;;10.88;1.75;;;6.80;99.90;;;;;;5131393;27;20047;-75
2022/01/22 14:13:39;;;;;;;11.38;1.60;;;6.70;99.90;;;;;;5153677;27;20039;-75
2022/01/22 14:16:20;;;;;;;;;;;6.70;99.90;;;;;;5103518;27;20388;-75
2022/01/22 14:18:46;;;;;;;6.65;1.42;;;6.70;99.90;;;;;;5125468;27;19915;-75
2022/01/22 14:21:20;;;;;;;4.88;1.42;;;6.60;99.90;;;;;;5124591;27;20030;-74
2022/01/22 14:23:49;;;;;;;7.53;1.70;;;6.70;99.90;;;;;;5124814;27;20059;-75
2022/01/22 14:26:33;;;;;;;8.13;1.52;;;6.70;99.90;;;;;;5105842;27;20050;-75
2022/01/22 14:29:07;;;;;;;4.60;1.30;;;6.60;99.90;;;;;;5105626;27;20038;-78
2022/01/22 14:31:50;;;;;;;6.05;1.50;;;6.70;99.90;;;;;;5124550;27;20044;-79
2022/01/22 14:34:32;;;;;;;6.20;1.50;;;6.70;99.90;;;;;;5109612;27;20039;-79
2022/01/22 14:36:59;;;;;;;5.75;1.20;;;6.60;99.90;;;;;;5123135;27;20086;-80
2022/01/22 14:43:50;;;;;;;;;;;6.60;99.90;;;;;;5126065;27;20110;-79
2022/01/22 14:45:10;;;;;;;7.80;1.70;;;6.60;99.90;;;;;;5126733;27;20425;-78
2022/01/22 14:47:35;;;;;;;8.07;1.60;;;6.60;99.90;;;;;;5127047;27;20050;-79
2022/01/22 14:50:08;;;;;;;3.83;1.57;;;6.70;99.90;;;;;;5127443;27;20047;-78
2022/01/22 14:52:34;;;;;;;5.63;1.30;;;6.70;99.90;;;;;;5124741;27;20301;-78
2022/01/22 14:55:03;;;;;;;7.00;1.15;;;6.70;99.90;;;;;;5126296;27;20034;-82
2022/01/22 14:57:32;;;;;;;4.28;1.00;;;6.70;99.90;;;;;;5105474;27;20572;-78
2022/01/22 15:00:03;;;;;;;7.93;1.10;;;6.70;99.90;;;;;;5127392;27;20105;-79